sensor_id;sensor_type;location;lat;lon;timestamp;pressure;altitude;pressure_sealevel;temperature;humidity
34197;BME280;36594;45.192;5.722;2022-09-12T05:35:18;99136.38;;;24.16;45.50
34197;BME280;36594;45.192;5.722;2022-09-12T05:38:07;99133.06;;;24.54;45.24
34197;BME280;36594;45.192;5.722;2022-09-12T05:43:55;99132.03;;;26.01;43.30
34197;BME280;36594;45.192;5.722;2022-09-12T05:46:45;99132.34;;;26.57;42.53
34197;BME280;36594;45.192;5.722;2022-09-12T05:49:35;99127.80;;;27.00;41.77
34197;BME280;36594;45.192;5.722;2022-09-12T05:52:24;99128.16;;;27.36;41.07
34197;BME280;36594;45.192;5.722;2022-09-12T05:55:12;99132.03;;;27.66;40.69
34197;BME280;36594;45.192;5.722;2022-09-12T05:58:01;99133.67;;;27.87;40.38
34197;BME280;36594;45.192;5.722;2022-09-12T06:00:49;99143.36;;;28.04;40.08
34197;BME280;36594;45.192;5.722;2022-09-12T06:03:45;99148.84;;;28.22;39.65
34197;BME280;36594;45.192;5.722;2022-09-12T06:06:37;99148.53;;;28.31;39.32
34197;BME280;36594;45.192;5.722;2022-09-12T06:09:24;99151.28;;;28.39;39.08
34197;BME280;36594;45.192;5.722;2022-09-12T06:12:14;99148.49;;;28.49;38.80
34197;BME280;36594;45.192;5.722;2022-09-12T06:15:03;99144.05;;;28.55;38.57
34197;BME280;36594;45.192;5.722;2022-09-12T06:17:51;99143.77;;;28.62;38.34
34197;BME280;36594;45.192;5.722;2022-09-12T06:20:41;99145.14;;;28.64;38.18
34197;BME280;36594;45.192;5.722;2022-09-12T06:23:29;99148.43;;;28.69;38.00
34197;BME280;36594;45.192;5.722;2022-09-12T06:26:18;99148.13;;;28.73;37.90
34197;BME280;36594;45.192;5.722;2022-09-12T06:29:09;99140.67;;;28.73;37.80
34197;BME280;36594;45.192;5.722;2022-09-12T06:31:58;99141.49;;;28.77;37.68
34197;BME280;36594;45.192;5.722;2022-09-12T06:34:46;99139.81;;;28.81;37.55
34197;BME280;36594;45.192;5.722;2022-09-12T06:37:35;99128.48;;;28.82;37.47
34197;BME280;36594;45.192;5.722;2022-09-12T06:40:23;99132.34;;;28.84;37.35
34197;BME280;36594;45.192;5.722;2022-09-12T06:43:12;99139.50;;;28.85;37.25
34197;BME280;36594;45.192;5.722;2022-09-12T06:46:05;99137.02;;;28.86;37.21
34197;BME280;36594;45.192;5.722;2022-09-12T06:48:58;99141.70;;;28.90;37.10
34197;BME280;36594;45.192;5.722;2022-09-12T06:51:47;99133.41;;;28.90;37.05
34197;BME280;36594;45.192;5.722;2022-09-12T06:54:36;99131.47;;;28.91;36.99
34197;BME280;36594;45.192;5.722;2022-09-12T06:57:25;99122.05;;;28.92;36.92
34197;BME280;36594;45.192;5.722;2022-09-12T07:00:15;99123.16;;;28.93;36.84
34197;BME280;36594;45.192;5.722;2022-09-12T07:03:03;99135.61;;;28.93;36.82
34197;BME280;36594;45.192;5.722;2022-09-12T07:05:55;99125.91;;;28.98;36.97
34197;BME280;36594;45.192;5.722;2022-09-12T07:08:50;99119.95;;;29.22;37.63
34197;BME280;36594;45.192;5.722;2022-09-12T07:11:42;99111.02;;;29.35;38.73
34197;BME280;36594;45.192;5.722;2022-09-12T07:14:31;99112.88;;;29.45;39.15
34197;BME280;36594;45.192;5.722;2022-09-12T07:17:19;99124.87;;;29.64;39.21
34197;BME280;36594;45.192;5.722;2022-09-12T07:20:08;99126.74;;;29.76;38.52
34197;BME280;36594;45.192;5.722;2022-09-12T07:22:56;99132.27;;;29.79;37.27
34197;BME280;36594;45.192;5.722;2022-09-12T07:25:55;99133.34;;;29.80;36.73
34197;BME280;36594;45.192;5.722;2022-09-12T07:28:44;99131.95;;;29.80;36.31
34197;BME280;36594;45.192;5.722;2022-09-12T07:31:34;99128.70;;;29.73;35.90
34197;BME280;36594;45.192;5.722;2022-09-12T07:34:22;99123.43;;;29.72;35.67
34197;BME280;36594;45.192;5.722;2022-09-12T07:37:11;99125.97;;;29.68;35.46
34197;BME280;36594;45.192;5.722;2022-09-12T07:40:01;99119.90;;;29.66;35.38
34197;BME280;36594;45.192;5.722;2022-09-12T07:42:50;99115.77;;;29.64;35.41
34197;BME280;36594;45.192;5.722;2022-09-12T07:45:38;99114.10;;;29.63;35.44
34197;BME280;36594;45.192;5.722;2022-09-12T07:48:28;99105.61;;;29.54;35.50
34197;BME280;36594;45.192;5.722;2022-09-12T07:51:19;99116.91;;;29.58;35.52
34197;BME280;36594;45.192;5.722;2022-09-12T07:54:09;99116.40;;;29.53;35.61
34197;BME280;36594;45.192;5.722;2022-09-12T07:56:58;99113.91;;;29.54;35.54
34197;BME280;36594;45.192;5.722;2022-09-12T07:59:49;99112.55;;;29.52;35.50
34197;BME280;36594;45.192;5.722;2022-09-12T08:02:39;99108.66;;;29.50;35.66
34197;BME280;36594;45.192;5.722;2022-09-12T08:05:28;99113.62;;;29.53;35.90
34197;BME280;36594;45.192;5.722;2022-09-12T08:08:18;99108.39;;;29.52;35.80
34197;BME280;36594;45.192;5.722;2022-09-12T08:11:10;99111.71;;;29.51;35.65
34197;BME280;36594;45.192;5.722;2022-09-12T08:14:05;99122.50;;;29.50;35.61
34197;BME280;36594;45.192;5.722;2022-09-12T08:16:56;99115.91;;;29.46;35.64
34197;BME280;36594;45.192;5.722;2022-09-12T08:19:45;99113.70;;;29.43;35.54
34197;BME280;36594;45.192;5.722;2022-09-12T08:22:34;99110.69;;;29.42;35.52
34197;BME280;36594;45.192;5.722;2022-09-12T08:25:22;99110.42;;;29.38;35.53
34197;BME280;36594;45.192;5.722;2022-09-12T08:28:10;99107.66;;;29.38;35.47
34197;BME280;36594;45.192;5.722;2022-09-12T08:31:04;99106.85;;;29.38;35.46
34197;BME280;36594;45.192;5.722;2022-09-12T08:33:57;99108.80;;;29.35;35.44
34197;BME280;36594;45.192;5.722;2022-09-12T08:36:48;99108.80;;;29.35;35.46
34197;BME280;36594;45.192;5.722;2022-09-12T08:39:37;99110.50;;;29.31;35.51
34197;BME280;36594;45.192;5.722;2022-09-12T08:42:36;99103.85;;;29.29;35.46
34197;BME280;36594;45.192;5.722;2022-09-12T08:45:40;99102.77;;;29.28;35.47
34197;BME280;36594;45.192;5.722;2022-09-12T08:48:20;99100.30;;;29.26;35.50
34197;BME280;36594;45.192;5.722;2022-09-12T08:51:11;99096.17;;;29.24;35.49
34197;BME280;36594;45.192;5.722;2022-09-12T08:54:01;99094.50;;;29.23;35.47
34197;BME280;36594;45.192;5.722;2022-09-12T08:56:55;99096.19;;;29.21;35.47
34197;BME280;36594;45.192;5.722;2022-09-12T08:59:44;99095.06;;;29.20;35.48
34197;BME280;36594;45.192;5.722;2022-09-12T09:02:50;99093.69;;;29.20;35.47
34197;BME280;36594;45.192;5.722;2022-09-12T09:06:14;99095.34;;;29.21;35.48
34197;BME280;36594;45.192;5.722;2022-09-12T09:09:04;99090.66;;;29.16;35.51
34197;BME280;36594;45.192;5.722;2022-09-12T09:18:19;99075.78;;;29.07;35.61
34197;BME280;36594;45.192;5.722;2022-09-12T09:21:20;99077.43;;;29.06;35.62
34197;BME280;36594;45.192;5.722;2022-09-12T09:24:13;99076.64;;;29.03;35.70
34197;BME280;36594;45.192;5.722;2022-09-12T09:27:05;99066.69;;;29.02;35.69
34197;BME280;36594;45.192;5.722;2022-09-12T09:29:59;99074.45;;;29.00;35.77
34197;BME280;36594;45.192;5.722;2022-09-12T09:32:51;99065.30;;;29.02;36.91
34197;BME280;36594;45.192;5.722;2022-09-12T09:35:58;99061.69;;;29.04;39.20
34197;BME280;36594;45.192;5.722;2022-09-12T09:39:01;99063.35;;;29.05;37.97
34197;BME280;36594;45.192;5.722;2022-09-12T09:45:09;99057.00;;;29.02;38.79
34197;BME280;36594;45.192;5.722;2022-09-12T09:50:51;99050.94;;;29.00;39.01
34197;BME280;36594;45.192;5.722;2022-09-12T09:53:47;99053.42;;;28.99;38.91
34197;BME280;36594;45.192;5.722;2022-09-12T09:56:39;99048.72;;;28.99;38.71
34197;BME280;36594;45.192;5.722;2022-09-12T09:59:34;99051.48;;;28.99;38.59
34197;BME280;36594;45.192;5.722;2022-09-12T10:02:23;99053.17;;;28.98;38.41
34197;BME280;36594;45.192;5.722;2022-09-12T10:05:17;99049.85;;;28.98;38.22
34197;BME280;36594;45.192;5.722;2022-09-12T10:08:09;;;;28.98;
34197;BME280;36594;45.192;5.722;2022-09-12T10:11:06;99039.34;;;28.98;37.97
34197;BME280;36594;45.192;5.722;2022-09-12T10:14:02;99031.05;;;28.98;37.84
34197;BME280;36594;45.192;5.722;2022-09-12T10:16:51;99027.75;;;28.96;37.77
34197;BME280;36594;45.192;5.722;2022-09-12T10:19:41;99031.61;;;28.95;37.69
34197;BME280;36594;45.192;5.722;2022-09-12T10:22:30;99024.15;;;28.95;37.59
34197;BME280;36594;45.192;5.722;2022-09-12T10:25:19;99016.41;;;28.95;37.48
34197;BME280;36594;45.192;5.722;2022-09-12T10:28:11;99013.94;;;28.93;37.19
34197;BME280;36594;45.192;5.722;2022-09-12T10:31:03;99009.79;;;28.93;37.17
34197;BME280;36594;45.192;5.722;2022-09-12T10:33:53;99010.04;;;28.94;37.11
34197;BME280;36594;45.192;5.722;2022-09-12T10:36:43;99008.64;;;28.97;37.13
34197;BME280;36594;45.192;5.722;2022-09-12T10:39:36;99006.45;;;28.96;37.15
34197;BME280;36594;45.192;5.722;2022-09-12T10:42:45;99002.58;;;28.95;37.00
34197;BME280;36594;45.192;5.722;2022-09-12T10:45:37;98996.20;;;28.97;36.91
34197;BME280;36594;45.192;5.722;2022-09-12T10:48:37;98995.09;;;28.98;36.87
34197;BME280;36594;45.192;5.722;2022-09-12T10:51:27;98996.18;;;28.99;36.79
34197;BME280;36594;45.192;5.722;2022-09-12T10:54:18;98995.09;;;28.98;36.75
34197;BME280;36594;45.192;5.722;2022-09-12T11:00:08;98980.98;;;28.97;36.67
34197;BME280;36594;45.192;5.722;2022-09-12T11:03:15;98983.48;;;28.98;36.63
34197;BME280;36594;45.192;5.722;2022-09-12T11:06:05;98979.05;;;28.97;36.60
34197;BME280;36594;45.192;5.722;2022-09-12T11:15:34;98968.55;;;28.97;36.49
34197;BME280;36594;45.192;5.722;2022-09-12T11:28:15;98957.48;;;28.97;36.39
34197;BME280;36594;45.192;5.722;2022-09-12T11:34:43;98953.06;;;28.98;36.34
34197;BME280;36594;45.192;5.722;2022-09-12T11:40:54;98951.95;;;28.97;36.29
34197;BME280;36594;45.192;5.722;2022-09-12T11:43:56;98944.51;;;28.95;36.29
34197;BME280;36594;45.192;5.722;2022-09-12T11:46:45;98938.95;;;28.97;35.71
34197;BME280;36594;45.192;5.722;2022-09-12T11:49:45;98938.95;;;28.97;35.71
34197;BME280;36594;45.192;5.722;2022-09-12T11:52:36;98938.39;;;29.00;36.14
34197;BME280;36594;45.192;5.722;2022-09-12T11:55:30;98934.48;;;29.01;36.09
34197;BME280;36594;45.192;5.722;2022-09-12T11:58:36;98930.62;;;29.02;36.04
34197;BME280;36594;45.192;5.722;2022-09-12T12:01:22;98933.09;;;29.04;36.01
34197;BME280;36594;45.192;5.722;2022-09-12T12:04:12;98921.47;;;29.04;35.98
34197;BME280;36594;45.192;5.722;2022-09-12T12:07:11;98915.94;;;29.04;35.95
34197;BME280;36594;45.192;5.722;2022-09-12T12:10:01;98917.60;;;29.05;35.89
34197;BME280;36594;45.192;5.722;2022-09-12T12:12:50;98913.98;;;29.07;35.86
34197;BME280;36594;45.192;5.722;2022-09-12T12:15:39;98913.45;;;29.05;35.85
34197;BME280;36594;45.192;5.722;2022-09-12T12:18:36;98912.88;;;29.06;35.84
34197;BME280;36594;45.192;5.722;2022-09-12T12:21:39;98905.43;;;29.04;36.05
34197;BME280;36594;45.192;5.722;2022-09-12T12:24:28;98907.91;;;29.08;36.02
34197;BME280;36594;45.192;5.722;2022-09-12T12:36:35;98891.21;;;29.18;37.33
34197;BME280;36594;45.192;5.722;2022-09-12T12:48:17;98883.98;;;29.69;39.34
34197;BME280;36594;45.192;5.722;2022-09-12T12:54:30;98881.70;;;29.76;38.89
34197;BME280;36594;45.192;5.722;2022-09-12T12:57:56;98878.97;;;29.71;38.55
34197;BME280;36594;45.192;5.722;2022-09-12T13:00:31;98869.58;;;29.70;38.27
34197;BME280;36594;45.192;5.722;2022-09-12T13:03:27;98870.14;;;29.69;37.56
34197;BME280;36594;45.192;5.722;2022-09-12T13:06:28;98863.22;;;29.69;37.06
34197;BME280;36594;45.192;5.722;2022-09-12T13:09:36;98850.75;;;29.69;36.86
34197;BME280;36594;45.192;5.722;2022-09-12T13:12:42;98842.20;;;29.68;36.58
34197;BME280;36594;45.192;5.722;2022-09-12T13:18:45;98834.30;;;29.59;36.41
34197;BME280;36594;45.192;5.722;2022-09-12T13:21:33;98829.56;;;29.60;36.49
34197;BME280;36594;45.192;5.722;2022-09-12T13:24:23;98827.37;;;29.59;36.52
34197;BME280;36594;45.192;5.722;2022-09-12T13:27:21;98822.06;;;29.63;36.41
34197;BME280;36594;45.192;5.722;2022-09-12T13:30:14;98824.00;;;29.62;36.33
34197;BME280;36594;45.192;5.722;2022-09-12T13:33:18;98819.56;;;29.64;36.26
34197;BME280;36594;45.192;5.722;2022-09-12T13:36:31;98826.18;;;29.65;36.10
34197;BME280;36594;45.192;5.722;2022-09-12T13:42:37;98811.78;;;29.66;36.29
34197;BME280;36594;45.192;5.722;2022-09-12T13:45:25;98804.89;;;29.63;36.20
34197;BME280;36594;45.192;5.722;2022-09-12T13:48:17;98806.00;;;29.62;36.21
34197;BME280;36594;45.192;5.722;2022-09-12T13:51:06;98800.22;;;29.61;35.92
34197;BME280;36594;45.192;5.722;2022-09-12T13:54:02;98800.22;;;29.61;35.90
34197;BME280;36594;45.192;5.722;2022-09-12T13:56:53;98793.00;;;29.63;35.73
34197;BME280;36594;45.192;5.722;2022-09-12T13:59:41;98791.05;;;29.63;35.58
34197;BME280;36594;45.192;5.722;2022-09-12T14:02:34;98788.84;;;29.63;35.43
34197;BME280;36594;45.192;5.722;2022-09-12T14:05:28;98787.15;;;29.64;35.42
34197;BME280;36594;45.192;5.722;2022-09-12T14:08:16;98783.31;;;29.63;35.31
34197;BME280;36594;45.192;5.722;2022-09-12T14:11:14;98777.25;;;29.61;35.26
34197;BME280;36594;45.192;5.722;2022-09-12T14:14:03;98777.49;;;29.62;35.29
34197;BME280;36594;45.192;5.722;2022-09-12T14:16:52;98775.03;;;29.60;35.12
34197;BME280;36594;45.192;5.722;2022-09-12T14:19:41;98771.95;;;29.62;34.98
34197;BME280;36594;45.192;5.722;2022-09-12T14:22:30;98769.50;;;29.60;34.90
34197;BME280;36594;45.192;5.722;2022-09-12T14:25:22;98766.17;;;29.61;34.99
34197;BME280;36594;45.192;5.722;2022-09-12T14:28:13;98764.24;;;29.61;35.01
34197;BME280;36594;45.192;5.722;2022-09-12T14:34:14;98759.26;;;29.61;34.93
34197;BME280;36594;45.192;5.722;2022-09-12T14:37:05;98766.73;;;29.60;34.85
34197;BME280;36594;45.192;5.722;2022-09-12T14:39:54;98761.75;;;29.60;34.86
34197;BME280;36594;45.192;5.722;2022-09-12T14:42:49;98760.09;;;29.61;34.83
34197;BME280;36594;45.192;5.722;2022-09-12T14:45:38;98755.94;;;29.61;34.78
34197;BME280;36594;45.192;5.722;2022-09-12T14:48:33;98755.97;;;29.59;34.80
34197;BME280;36594;45.192;5.722;2022-09-12T14:51:39;98761.99;;;29.63;34.66
34197;BME280;36594;45.192;5.722;2022-09-12T14:57:36;98747.11;;;29.59;34.61
34197;BME280;36594;45.192;5.722;2022-09-12T15:00:25;98756.14;;;29.65;34.53
34197;BME280;36594;45.192;5.722;2022-09-12T15:03:32;98752.55;;;29.64;34.53
34197;BME280;36594;45.192;5.722;2022-09-12T15:06:29;98747.56;;;29.66;34.33
34197;BME280;36594;45.192;5.722;2022-09-12T15:09:18;98747.25;;;29.68;34.30
34197;BME280;36594;45.192;5.722;2022-09-12T15:12:08;98736.14;;;29.70;34.17
34197;BME280;36594;45.192;5.722;2022-09-12T15:15:11;98739.39;;;29.75;34.14
34197;BME280;36594;45.192;5.722;2022-09-12T15:17:51;98731.64;;;29.74;34.06
34197;BME280;36594;45.192;5.722;2022-09-12T15:20:41;98730.46;;;29.80;33.96
34197;BME280;36594;45.192;5.722;2022-09-12T15:23:52;98728.80;;;29.82;33.92
34197;BME280;36594;45.192;5.722;2022-09-12T15:26:38;98735.69;;;29.84;33.87
34197;BME280;36594;45.192;5.722;2022-09-12T15:29:26;98738.48;;;29.82;33.89
34197;BME280;36594;45.192;5.722;2022-09-12T15:32:28;98728.14;;;29.87;33.81
34197;BME280;36594;45.192;5.722;2022-09-12T15:35:21;98728.69;;;29.89;33.75
34197;BME280;36594;45.192;5.722;2022-09-12T15:38:13;98730.83;;;29.92;33.63
34197;BME280;36594;45.192;5.722;2022-09-12T15:41:03;98719.52;;;29.91;33.65
34197;BME280;36594;45.192;5.722;2022-09-12T15:43:51;98716.12;;;29.94;33.64
34197;BME280;36594;45.192;5.722;2022-09-12T15:46:42;98718.56;;;29.98;33.55
34197;BME280;36594;45.192;5.722;2022-09-12T15:49:31;98712.47;;;29.99;33.56
34197;BME280;36594;45.192;5.722;2022-09-12T15:52:20;98712.67;;;30.02;33.57
34197;BME280;36594;45.192;5.722;2022-09-12T15:55:28;98710.70;;;30.05;33.51
34197;BME280;36594;45.192;5.722;2022-09-12T15:58:18;98715.64;;;30.06;33.46
34197;BME280;36594;45.192;5.722;2022-09-12T16:01:14;98701.23;;;30.06;33.55
34197;BME280;36594;45.192;5.722;2022-09-12T16:04:03;98697.64;;;30.06;33.50
34197;BME280;36594;45.192;5.722;2022-09-12T16:06:54;98695.66;;;30.09;33.49
34197;BME280;36594;45.192;5.722;2022-09-12T16:09:47;98696.84;;;30.05;33.56
34197;BME280;36594;45.192;5.722;2022-09-12T16:12:36;98695.42;;;30.08;34.02
34197;BME280;36594;45.192;5.722;2022-09-12T16:15:25;98694.23;;;30.12;34.00
34197;BME280;36594;45.192;5.722;2022-09-12T16:18:13;98696.05;;;30.19;33.88
34197;BME280;36594;45.192;5.722;2022-09-12T16:21:02;98691.80;;;30.24;33.86
34197;BME280;36594;45.192;5.722;2022-09-12T16:23:50;98689.03;;;30.24;33.87
34197;BME280;36594;45.192;5.722;2022-09-12T16:26:41;98687.38;;;30.23;33.87
34197;BME280;36594;45.192;5.722;2022-09-12T16:29:31;98686.42;;;30.30;33.80
34197;BME280;36594;45.192;5.722;2022-09-12T16:32:19;98687.56;;;30.29;33.85
34197;BME280;36594;45.192;5.722;2022-09-12T16:35:08;98680.83;;;30.32;33.90
34197;BME280;36594;45.192;5.722;2022-09-12T16:37:56;98674.77;;;30.33;33.87
34197;BME280;36594;45.192;5.722;2022-09-12T16:40:45;98679.95;;;30.37;33.84
34197;BME280;36594;45.192;5.722;2022-09-12T16:43:36;98675.97;;;30.43;33.77
34197;BME280;36594;45.192;5.722;2022-09-12T16:46:28;98675.09;;;30.45;33.73
34197;BME280;36594;45.192;5.722;2022-09-12T16:49:17;98670.43;;;30.43;33.69
34197;BME280;36594;45.192;5.722;2022-09-12T16:52:06;98675.34;;;30.46;33.86
34197;BME280;36594;45.192;5.722;2022-09-12T16:54:54;98674.78;;;30.46;33.79
34197;BME280;36594;45.192;5.722;2022-09-12T16:57:44;98674.27;;;30.44;33.83
34197;BME280;36594;45.192;5.722;2022-09-12T17:00:33;98678.19;;;30.43;33.86
34197;BME280;36594;45.192;5.722;2022-09-12T17:03:29;98681.00;;;30.41;33.82
34197;BME280;36594;45.192;5.722;2022-09-12T17:06:17;98669.55;;;30.29;34.00
34197;BME280;36594;45.192;5.722;2022-09-12T17:09:06;98675.42;;;30.25;34.04
34197;BME280;36594;45.192;5.722;2022-09-12T17:11:56;98683.06;;;30.17;34.27
34197;BME280;36594;45.192;5.722;2022-09-12T17:14:45;98685.97;;;30.09;34.51
34197;BME280;36594;45.192;5.722;2022-09-12T17:17:33;98694.07;;;30.05;34.77
34197;BME280;36594;45.192;5.722;2022-09-12T17:20:21;98698.47;;;30.06;34.89
34197;BME280;36594;45.192;5.722;2022-09-12T17:23:10;98698.78;;;30.05;34.94
34197;BME280;36594;45.192;5.722;2022-09-12T17:25:59;98699.66;;;30.03;35.02
34197;BME280;36594;45.192;5.722;2022-09-12T17:28:47;98707.92;;;30.05;35.03
34197;BME280;36594;45.192;5.722;2022-09-12T17:31:36;98706.34;;;29.99;35.06
34197;BME280;36594;45.192;5.722;2022-09-12T17:34:24;98703.61;;;29.97;35.04
34197;BME280;36594;45.192;5.722;2022-09-12T17:37:12;98708.95;;;29.93;35.13
34197;BME280;36594;45.192;5.722;2022-09-12T17:40:02;98708.67;;;29.92;35.09
34197;BME280;36594;45.192;5.722;2022-09-12T17:42:50;98715.91;;;29.91;35.12
34197;BME280;36594;45.192;5.722;2022-09-12T17:45:39;98712.15;;;29.84;34.92
34197;BME280;36594;45.192;5.722;2022-09-12T17:48:28;98712.15;;;29.84;34.92
34197;BME280;36594;45.192;5.722;2022-09-12T17:51:17;98700.36;;;29.76;35.20
34197;BME280;36594;45.192;5.722;2022-09-12T17:54:08;98712.22;;;29.79;35.23
34197;BME280;36594;45.192;5.722;2022-09-12T17:56:58;98717.52;;;29.76;35.25
34197;BME280;36594;45.192;5.722;2022-09-12T17:59:46;98718.67;;;29.72;35.29
34197;BME280;36594;45.192;5.722;2022-09-12T18:02:35;98718.19;;;29.68;35.31
34197;BME280;36594;45.192;5.722;2022-09-12T18:05:24;98720.99;;;29.65;35.31
34197;BME280;36594;45.192;5.722;2022-09-12T18:08:13;98723.45;;;29.67;35.30
34197;BME280;36594;45.192;5.722;2022-09-12T18:11:04;98732.41;;;29.61;35.33
34197;BME280;36594;45.192;5.722;2022-09-12T18:13:53;98737.67;;;29.60;35.38
34197;BME280;36594;45.192;5.722;2022-09-12T18:16:42;98741.89;;;29.55;35.42
34197;BME280;36594;45.192;5.722;2022-09-12T18:19:31;98747.48;;;29.50;35.58
34197;BME280;36594;45.192;5.722;2022-09-12T18:22:20;98752.23;;;29.50;35.77
34197;BME280;36594;45.192;5.722;2022-09-12T18:25:09;98755.55;;;29.49;36.00
34197;BME280;36594;45.192;5.722;2022-09-12T18:27:57;98751.12;;;29.48;36.20
34197;BME280;36594;45.192;5.722;2022-09-12T18:30:48;98746.69;;;29.50;36.17
34197;BME280;36594;45.192;5.722;2022-09-12T18:33:36;98746.69;;;29.50;36.49
34197;BME280;36594;45.192;5.722;2022-09-12T18:36:24;98754.34;;;29.55;37.28
34197;BME280;36594;45.192;5.722;2022-09-12T18:39:14;98751.85;;;29.56;37.85
34197;BME280;36594;45.192;5.722;2022-09-12T18:42:03;98758.19;;;29.59;37.53
34197;BME280;36594;45.192;5.722;2022-09-12T18:44:52;98759.84;;;29.58;37.52
34197;BME280;36594;45.192;5.722;2022-09-12T18:47:40;98762.89;;;29.59;37.60
34197;BME280;36594;45.192;5.722;2022-09-12T18:50:33;98761.27;;;29.55;37.50
34197;BME280;36594;45.192;5.722;2022-09-12T18:53:22;98760.53;;;29.50;36.82
34197;BME280;36594;45.192;5.722;2022-09-12T18:56:12;98766.06;;;29.50;36.41
34197;BME280;36594;45.192;5.722;2022-09-12T18:59:02;98772.73;;;29.46;36.28
34197;BME280;36594;45.192;5.722;2022-09-12T19:01:51;98777.23;;;29.42;36.26
34197;BME280;36594;45.192;5.722;2022-09-12T19:04:40;98773.08;;;29.42;36.25
34197;BME280;36594;45.192;5.722;2022-09-12T19:07:28;98773.94;;;29.40;36.24
34197;BME280;36594;45.192;5.722;2022-09-12T19:10:18;98770.71;;;29.33;36.33
34197;BME280;36594;45.192;5.722;2022-09-12T19:13:06;98772.65;;;29.32;36.34
34197;BME280;36594;45.192;5.722;2022-09-12T19:15:59;98778.73;;;29.32;36.23
34197;BME280;36594;45.192;5.722;2022-09-12T19:18:49;98782.39;;;29.27;36.28
34197;BME280;36594;45.192;5.722;2022-09-12T19:21:38;98785.16;;;29.27;36.25
34197;BME280;36594;45.192;5.722;2022-09-12T19:24:28;98784.08;;;29.26;36.28
34197;BME280;36594;45.192;5.722;2022-09-12T19:27:17;98780.48;;;29.25;36.31
34197;BME280;36594;45.192;5.722;2022-09-12T19:30:06;98784.94;;;29.24;36.43
34197;BME280;36594;45.192;5.722;2022-09-12T19:32:54;98784.66;;;29.23;36.56
34197;BME280;36594;45.192;5.722;2022-09-12T19:35:43;98791.88;;;29.21;36.71
34197;BME280;36594;45.192;5.722;2022-09-12T19:38:31;98783.31;;;29.20;37.05
34197;BME280;36594;45.192;5.722;2022-09-12T19:41:20;98783.86;;;29.20;37.43
34197;BME280;36594;45.192;5.722;2022-09-12T19:44:08;98785.52;;;29.21;37.44
34197;BME280;36594;45.192;5.722;2022-09-12T19:47:00;98778.38;;;29.15;37.25
34197;BME280;36594;45.192;5.722;2022-09-12T19:49:49;98788.00;;;29.17;37.17
34197;BME280;36594;45.192;5.722;2022-09-12T19:52:38;98785.23;;;29.17;37.20
34197;BME280;36594;45.192;5.722;2022-09-12T19:55:27;98791.08;;;29.16;37.43
34197;BME280;36594;45.192;5.722;2022-09-12T19:58:16;98800.77;;;29.18;37.25
34197;BME280;36594;45.192;5.722;2022-09-12T20:04:05;98788.31;;;29.16;37.06
34197;BME280;36594;45.192;5.722;2022-09-12T20:06:53;98788.06;;;29.15;36.92
34197;BME280;36594;45.192;5.722;2022-09-12T20:09:49;98788.06;;;29.15;36.86
34197;BME280;36594;45.192;5.722;2022-09-12T20:12:40;98790.86;;;29.12;37.01
34197;BME280;36594;45.192;5.722;2022-09-12T20:15:28;98796.94;;;29.12;36.95
34197;BME280;36594;45.192;5.722;2022-09-12T20:18:17;98795.83;;;29.10;36.82
34197;BME280;36594;45.192;5.722;2022-09-12T20:21:16;98800.81;;;29.11;36.77
34197;BME280;36594;45.192;5.722;2022-09-12T20:24:12;98796.66;;;29.11;36.71
34197;BME280;36594;45.192;5.722;2022-09-12T20:26:58;98800.04;;;29.08;36.73
34197;BME280;36594;45.192;5.722;2022-09-12T20:29:47;98803.38;;;29.05;36.69
34197;BME280;36594;45.192;5.722;2022-09-12T20:32:36;98803.69;;;29.03;36.64
34197;BME280;36594;45.192;5.722;2022-09-12T20:35:25;98795.42;;;29.01;36.65
34197;BME280;36594;45.192;5.722;2022-09-12T20:38:16;98799.56;;;29.01;36.61
34197;BME280;36594;45.192;5.722;2022-09-12T20:41:07;98797.63;;;28.99;36.64
34197;BME280;36594;45.192;5.722;2022-09-12T20:43:56;98799.06;;;28.96;36.57
34197;BME280;36594;45.192;5.722;2022-09-12T20:46:46;98796.02;;;28.95;36.51
34197;BME280;36594;45.192;5.722;2022-09-12T20:49:36;98786.42;;;28.88;36.54
34197;BME280;36594;45.192;5.722;2022-09-12T20:52:27;98802.68;;;28.92;36.50
34197;BME280;36594;45.192;5.722;2022-09-12T20:55:15;98803.84;;;28.88;36.55
34197;BME280;36594;45.192;5.722;2022-09-12T20:58:05;98800.24;;;28.88;36.53
34197;BME280;36594;45.192;5.722;2022-09-12T21:00:53;98808.53;;;28.88;36.48
34197;BME280;36594;45.192;5.722;2022-09-12T21:03:43;98810.77;;;28.86;36.53
34197;BME280;36594;45.192;5.722;2022-09-12T21:06:31;98816.30;;;28.86;36.56
34197;BME280;36594;45.192;5.722;2022-09-12T21:09:20;98822.16;;;28.82;36.69
34197;BME280;36594;45.192;5.722;2022-09-12T21:12:08;98820.17;;;28.85;36.64
34197;BME280;36594;45.192;5.722;2022-09-12T21:14:59;98825.75;;;28.82;36.72
34197;BME280;36594;45.192;5.722;2022-09-12T21:17:47;98829.63;;;28.81;36.71
34197;BME280;36594;45.192;5.722;2022-09-12T21:20:35;98831.84;;;28.82;36.66
34197;BME280;36594;45.192;5.722;2022-09-12T21:23:24;98835.70;;;28.81;36.64
34197;BME280;36594;45.192;5.722;2022-09-12T21:26:13;98839.07;;;28.78;36.71
34197;BME280;36594;45.192;5.722;2022-09-12T21:29:02;98851.19;;;28.82;36.52
34197;BME280;36594;45.192;5.722;2022-09-12T21:31:51;98844.30;;;28.79;36.47
34197;BME280;36594;45.192;5.722;2022-09-12T21:34:47;98846.23;;;28.79;36.38
34197;BME280;36594;45.192;5.722;2022-09-12T21:37:37;98846.23;;;28.79;36.30
34197;BME280;36594;45.192;5.722;2022-09-12T21:40:34;98841.86;;;28.75;36.32
34197;BME280;36594;45.192;5.722;2022-09-12T21:43:22;98847.39;;;28.75;36.27
34197;BME280;36594;45.192;5.722;2022-09-12T21:46:11;98844.66;;;28.70;36.31
34197;BME280;36594;45.192;5.722;2022-09-12T21:49:02;98847.95;;;28.72;36.36
34197;BME280;36594;45.192;5.722;2022-09-12T21:52:16;98852.66;;;28.71;36.24
34197;BME280;36594;45.192;5.722;2022-09-12T21:55:04;98857.67;;;28.67;36.28
34197;BME280;36594;45.192;5.722;2022-09-12T21:57:54;98852.98;;;28.67;36.23
34197;BME280;36594;45.192;5.722;2022-09-12T22:00:42;98853.81;;;28.68;36.18